sensor_id;sensor_type;location;lat;lon;timestamp;P1;durP1;ratioP1;P2;durP2;ratioP2
11539;SDS011;5826;54.756;9.192;2024-02-21T00:00:42;28.17;;;6.30;;
11539;SDS011;5826;54.756;9.192;2024-02-21T00:03:08;21.40;;;6.03;;
11539;SDS011;5826;54.756;9.192;2024-02-21T00:05:33;21.70;;;5.25;;
11539;SDS011;5826;54.756;9.192;2024-02-21T00:07:59;21.30;;;5.72;;
11539;SDS011;5826;54.756;9.192;2024-02-21T00:10:24;18.95;;;5.60;;
11539;SDS011;5826;54.756;9.192;2024-02-21T00:12:50;18.70;;;6.07;;
11539;SDS011;5826;54.756;9.192;2024-02-21T00:15:16;20.33;;;5.75;;
11539;SDS011;5826;54.756;9.192;2024-02-21T00:17:43;21.67;;;5.85;;
11539;SDS011;5826;54.756;9.192;2024-02-21T00:20:09;15.23;;;4.68;;
11539;SDS011;5826;54.756;9.192;2024-02-21T00:22:35;27.90;;;5.85;;
11539;SDS011;5826;54.756;9.192;2024-02-21T00:25:01;19.92;;;5.25;;
11539;SDS011;5826;54.756;9.192;2024-02-21T00:27:26;25.40;;;5.53;;
11539;SDS011;5826;54.756;9.192;2024-02-21T00:29:52;24.83;;;5.20;;
11539;SDS011;5826;54.756;9.192;2024-02-21T00:32:18;18.42;;;5.25;;
11539;SDS011;5826;54.756;9.192;2024-02-21T00:34:43;22.42;;;5.60;;
11539;SDS011;5826;54.756;9.192;2024-02-21T00:37:09;15.88;;;5.55;;
11539;SDS011;5826;54.756;9.192;2024-02-21T00:39:34;18.48;;;5.53;;
11539;SDS011;5826;54.756;9.192;2024-02-21T00:42:00;21.95;;;5.15;;
11539;SDS011;5826;54.756;9.192;2024-02-21T00:44:26;17.17;;;5.05;;
11539;SDS011;5826;54.756;9.192;2024-02-21T00:46:51;19.30;;;5.05;;
11539;SDS011;5826;54.756;9.192;2024-02-21T00:49:17;19.75;;;5.13;;
11539;SDS011;5826;54.756;9.192;2024-02-21T00:51:43;19.35;;;5.15;;
11539;SDS011;5826;54.756;9.192;2024-02-21T00:54:08;17.50;;;5.22;;
11539;SDS011;5826;54.756;9.192;2024-02-21T00:56:34;20.27;;;5.65;;
11539;SDS011;5826;54.756;9.192;2024-02-21T00:58:59;15.68;;;4.20;;
11539;SDS011;5826;54.756;9.192;2024-02-21T01:01:25;13.77;;;4.15;;
11539;SDS011;5826;54.756;9.192;2024-02-21T01:03:51;16.55;;;4.68;;
11539;SDS011;5826;54.756;9.192;2024-02-21T01:06:18;16.38;;;4.30;;
11539;SDS011;5826;54.756;9.192;2024-02-21T01:08:44;14.85;;;4.32;;
11539;SDS011;5826;54.756;9.192;2024-02-21T01:11:10;15.75;;;4.20;;
11539;SDS011;5826;54.756;9.192;2024-02-21T01:13:36;12.93;;;3.72;;
11539;SDS011;5826;54.756;9.192;2024-02-21T01:16:01;14.02;;;4.40;;
11539;SDS011;5826;54.756;9.192;2024-02-21T01:18:27;15.48;;;3.80;;
11539;SDS011;5826;54.756;9.192;2024-02-21T01:20:52;15.68;;;4.30;;
11539;SDS011;5826;54.756;9.192;2024-02-21T01:23:18;13.48;;;3.55;;
11539;SDS011;5826;54.756;9.192;2024-02-21T01:25:43;11.52;;;3.30;;
11539;SDS011;5826;54.756;9.192;2024-02-21T01:28:09;10.43;;;3.20;;
11539;SDS011;5826;54.756;9.192;2024-02-21T01:30:35;13.07;;;3.40;;
11539;SDS011;5826;54.756;9.192;2024-02-21T01:33:00;10.25;;;2.92;;
11539;SDS011;5826;54.756;9.192;2024-02-21T01:35:26;7.82;;;2.95;;
11539;SDS011;5826;54.756;9.192;2024-02-21T01:37:51;8.63;;;3.00;;
11539;SDS011;5826;54.756;9.192;2024-02-21T01:40:17;11.07;;;3.90;;
11539;SDS011;5826;54.756;9.192;2024-02-21T01:42:42;11.93;;;3.80;;
11539;SDS011;5826;54.756;9.192;2024-02-21T01:45:08;11.90;;;3.80;;
11539;SDS011;5826;54.756;9.192;2024-02-21T01:47:34;10.00;;;3.63;;
11539;SDS011;5826;54.756;9.192;2024-02-21T01:50:01;12.10;;;3.70;;
11539;SDS011;5826;54.756;9.192;2024-02-21T01:52:28;9.07;;;3.42;;
11539;SDS011;5826;54.756;9.192;2024-02-21T01:54:55;9.32;;;3.65;;
11539;SDS011;5826;54.756;9.192;2024-02-21T01:57:20;12.25;;;3.97;;
11539;SDS011;5826;54.756;9.192;2024-02-21T01:59:46;11.77;;;4.07;;
11539;SDS011;5826;54.756;9.192;2024-02-21T02:02:12;12.02;;;4.20;;
11539;SDS011;5826;54.756;9.192;2024-02-21T02:04:38;12.70;;;4.38;;
11539;SDS011;5826;54.756;9.192;2024-02-21T02:07:04;13.80;;;5.28;;
11539;SDS011;5826;54.756;9.192;2024-02-21T02:09:32;13.02;;;3.90;;
11539;SDS011;5826;54.756;9.192;2024-02-21T02:11:58;9.77;;;3.92;;
11539;SDS011;5826;54.756;9.192;2024-02-21T02:14:24;7.53;;;2.70;;
11539;SDS011;5826;54.756;9.192;2024-02-21T02:16:50;10.02;;;3.03;;
11539;SDS011;5826;54.756;9.192;2024-02-21T02:19:15;9.05;;;3.08;;
11539;SDS011;5826;54.756;9.192;2024-02-21T02:21:42;7.63;;;3.00;;
11539;SDS011;5826;54.756;9.192;2024-02-21T02:24:13;13.10;;;3.15;;
11539;SDS011;5826;54.756;9.192;2024-02-21T02:26:39;7.53;;;2.28;;
11539;SDS011;5826;54.756;9.192;2024-02-21T02:29:04;8.38;;;2.70;;
11539;SDS011;5826;54.756;9.192;2024-02-21T02:31:30;10.68;;;3.15;;
11539;SDS011;5826;54.756;9.192;2024-02-21T02:33:55;12.43;;;3.50;;
11539;SDS011;5826;54.756;9.192;2024-02-21T02:36:21;10.02;;;3.25;;
11539;SDS011;5826;54.756;9.192;2024-02-21T02:38:46;14.65;;;3.75;;
11539;SDS011;5826;54.756;9.192;2024-02-21T02:41:12;10.25;;;3.50;;
11539;SDS011;5826;54.756;9.192;2024-02-21T02:43:37;11.75;;;3.50;;
11539;SDS011;5826;54.756;9.192;2024-02-21T02:46:03;11.02;;;4.10;;
11539;SDS011;5826;54.756;9.192;2024-02-21T02:48:29;13.52;;;3.90;;
11539;SDS011;5826;54.756;9.192;2024-02-21T02:50:54;16.00;;;4.22;;
11539;SDS011;5826;54.756;9.192;2024-02-21T02:53:20;13.60;;;3.30;;
11539;SDS011;5826;54.756;9.192;2024-02-21T02:55:45;14.35;;;4.20;;
11539;SDS011;5826;54.756;9.192;2024-02-21T02:58:11;14.43;;;4.18;;
11539;SDS011;5826;54.756;9.192;2024-02-21T03:00:37;13.93;;;3.60;;
11539;SDS011;5826;54.756;9.192;2024-02-21T03:03:04;16.33;;;3.92;;
11539;SDS011;5826;54.756;9.192;2024-02-21T03:05:29;12.30;;;3.78;;
11539;SDS011;5826;54.756;9.192;2024-02-21T03:07:55;17.65;;;3.65;;
11539;SDS011;5826;54.756;9.192;2024-02-21T03:10:20;15.18;;;3.72;;
11539;SDS011;5826;54.756;9.192;2024-02-21T03:12:46;14.77;;;3.78;;
11539;SDS011;5826;54.756;9.192;2024-02-21T03:15:12;12.57;;;3.65;;
11539;SDS011;5826;54.756;9.192;2024-02-21T03:17:38;14.93;;;3.90;;
11539;SDS011;5826;54.756;9.192;2024-02-21T03:20:04;14.13;;;3.40;;
11539;SDS011;5826;54.756;9.192;2024-02-21T03:22:30;11.23;;;3.08;;
11539;SDS011;5826;54.756;9.192;2024-02-21T03:24:57;17.95;;;3.97;;
11539;SDS011;5826;54.756;9.192;2024-02-21T03:27:23;11.60;;;3.50;;
11539;SDS011;5826;54.756;9.192;2024-02-21T03:29:48;13.00;;;3.50;;
11539;SDS011;5826;54.756;9.192;2024-02-21T03:32:14;15.60;;;2.97;;
11539;SDS011;5826;54.756;9.192;2024-02-21T03:34:39;16.05;;;3.65;;
11539;SDS011;5826;54.756;9.192;2024-02-21T03:37:05;13.98;;;3.88;;
11539;SDS011;5826;54.756;9.192;2024-02-21T03:39:33;12.88;;;3.30;;
11539;SDS011;5826;54.756;9.192;2024-02-21T03:41:59;14.07;;;3.50;;
11539;SDS011;5826;54.756;9.192;2024-02-21T03:44:29;14.63;;;3.80;;
11539;SDS011;5826;54.756;9.192;2024-02-21T03:46:55;19.80;;;4.40;;
11539;SDS011;5826;54.756;9.192;2024-02-21T03:49:20;17.13;;;4.25;;
11539;SDS011;5826;54.756;9.192;2024-02-21T03:51:46;15.00;;;3.40;;
11539;SDS011;5826;54.756;9.192;2024-02-21T03:54:11;12.48;;;3.35;;
11539;SDS011;5826;54.756;9.192;2024-02-21T03:56:37;14.93;;;3.60;;
11539;SDS011;5826;54.756;9.192;2024-02-21T03:59:04;20.70;;;4.55;;
11539;SDS011;5826;54.756;9.192;2024-02-21T04:01:31;15.32;;;4.10;;
11539;SDS011;5826;54.756;9.192;2024-02-21T04:03:56;11.73;;;3.65;;
11539;SDS011;5826;54.756;9.192;2024-02-21T04:06:22;14.00;;;3.15;;
11539;SDS011;5826;54.756;9.192;2024-02-21T04:08:47;19.38;;;3.95;;
11539;SDS011;5826;54.756;9.192;2024-02-21T04:11:13;11.45;;;3.13;;
11539;SDS011;5826;54.756;9.192;2024-02-21T04:13:38;13.90;;;3.83;;
11539;SDS011;5826;54.756;9.192;2024-02-21T04:16:04;12.95;;;3.55;;
11539;SDS011;5826;54.756;9.192;2024-02-21T04:18:30;16.83;;;3.97;;
11539;SDS011;5826;54.756;9.192;2024-02-21T04:20:56;17.98;;;3.97;;
11539;SDS011;5826;54.756;9.192;2024-02-21T04:23:21;14.65;;;4.20;;
11539;SDS011;5826;54.756;9.192;2024-02-21T04:25:47;16.70;;;4.10;;
11539;SDS011;5826;54.756;9.192;2024-02-21T04:28:12;16.08;;;3.75;;
11539;SDS011;5826;54.756;9.192;2024-02-21T04:30:38;12.00;;;3.47;;
11539;SDS011;5826;54.756;9.192;2024-02-21T04:33:03;19.73;;;4.60;;
11539;SDS011;5826;54.756;9.192;2024-02-21T04:35:29;19.42;;;4.45;;
11539;SDS011;5826;54.756;9.192;2024-02-21T04:37:54;14.25;;;3.85;;
11539;SDS011;5826;54.756;9.192;2024-02-21T04:40:20;17.30;;;4.20;;
11539;SDS011;5826;54.756;9.192;2024-02-21T04:42:45;19.58;;;4.35;;
11539;SDS011;5826;54.756;9.192;2024-02-21T04:45:11;17.38;;;3.95;;
11539;SDS011;5826;54.756;9.192;2024-02-21T04:47:36;15.23;;;4.60;;
11539;SDS011;5826;54.756;9.192;2024-02-21T04:50:02;14.98;;;3.45;;
11539;SDS011;5826;54.756;9.192;2024-02-21T04:52:28;13.02;;;4.10;;
11539;SDS011;5826;54.756;9.192;2024-02-21T04:54:54;12.80;;;3.47;;
11539;SDS011;5826;54.756;9.192;2024-02-21T04:57:20;11.55;;;3.30;;
11539;SDS011;5826;54.756;9.192;2024-02-21T04:59:45;17.67;;;4.30;;
11539;SDS011;5826;54.756;9.192;2024-02-21T05:02:14;19.10;;;4.40;;
11539;SDS011;5826;54.756;9.192;2024-02-21T05:04:39;20.02;;;4.35;;
11539;SDS011;5826;54.756;9.192;2024-02-21T05:07:06;16.08;;;3.33;;
11539;SDS011;5826;54.756;9.192;2024-02-21T05:09:32;15.57;;;3.45;;
11539;SDS011;5826;54.756;9.192;2024-02-21T05:11:58;18.67;;;4.38;;
11539;SDS011;5826;54.756;9.192;2024-02-21T05:14:26;17.80;;;3.90;;
11539;SDS011;5826;54.756;9.192;2024-02-21T05:16:52;14.23;;;3.90;;
11539;SDS011;5826;54.756;9.192;2024-02-21T05:19:18;15.55;;;3.50;;
11539;SDS011;5826;54.756;9.192;2024-02-21T05:21:43;20.42;;;3.80;;
11539;SDS011;5826;54.756;9.192;2024-02-21T05:24:09;13.20;;;3.55;;
11539;SDS011;5826;54.756;9.192;2024-02-21T05:26:34;15.73;;;3.40;;
11539;SDS011;5826;54.756;9.192;2024-02-21T05:29:00;14.15;;;2.90;;
11539;SDS011;5826;54.756;9.192;2024-02-21T05:31:26;16.67;;;4.03;;
11539;SDS011;5826;54.756;9.192;2024-02-21T05:34:07;17.40;;;3.78;;
11539;SDS011;5826;54.756;9.192;2024-02-21T05:36:33;19.08;;;3.22;;
11539;SDS011;5826;54.756;9.192;2024-02-21T05:38:59;17.65;;;3.97;;
11539;SDS011;5826;54.756;9.192;2024-02-21T05:41:24;17.77;;;4.00;;
11539;SDS011;5826;54.756;9.192;2024-02-21T05:43:50;17.60;;;4.28;;
11539;SDS011;5826;54.756;9.192;2024-02-21T05:46:18;17.33;;;4.40;;
11539;SDS011;5826;54.756;9.192;2024-02-21T05:48:44;16.00;;;4.03;;
11539;SDS011;5826;54.756;9.192;2024-02-21T05:51:10;13.50;;;4.22;;
11539;SDS011;5826;54.756;9.192;2024-02-21T05:53:36;17.63;;;4.50;;
11539;SDS011;5826;54.756;9.192;2024-02-21T05:56:05;16.35;;;3.80;;
11539;SDS011;5826;54.756;9.192;2024-02-21T05:58:36;14.23;;;3.60;;
11539;SDS011;5826;54.756;9.192;2024-02-21T06:01:02;14.40;;;3.30;;
11539;SDS011;5826;54.756;9.192;2024-02-21T06:03:28;14.88;;;4.13;;
11539;SDS011;5826;54.756;9.192;2024-02-21T06:05:54;20.23;;;5.72;;
11539;SDS011;5826;54.756;9.192;2024-02-21T06:08:19;13.80;;;4.30;;
11539;SDS011;5826;54.756;9.192;2024-02-21T06:10:45;14.10;;;4.25;;
11539;SDS011;5826;54.756;9.192;2024-02-21T06:13:11;15.52;;;5.60;;
11539;SDS011;5826;54.756;9.192;2024-02-21T06:15:36;15.30;;;6.35;;
11539;SDS011;5826;54.756;9.192;2024-02-21T06:18:01;14.07;;;5.88;;
11539;SDS011;5826;54.756;9.192;2024-02-21T06:20:27;21.67;;;6.45;;
11539;SDS011;5826;54.756;9.192;2024-02-21T06:22:53;18.33;;;4.73;;
11539;SDS011;5826;54.756;9.192;2024-02-21T06:25:19;17.27;;;6.13;;
11539;SDS011;5826;54.756;9.192;2024-02-21T06:27:44;16.60;;;3.90;;
11539;SDS011;5826;54.756;9.192;2024-02-21T06:30:10;15.50;;;3.67;;
11539;SDS011;5826;54.756;9.192;2024-02-21T06:32:35;12.88;;;3.70;;
11539;SDS011;5826;54.756;9.192;2024-02-21T06:35:01;14.07;;;3.57;;
11539;SDS011;5826;54.756;9.192;2024-02-21T06:37:26;17.87;;;4.00;;
11539;SDS011;5826;54.756;9.192;2024-02-21T06:39:52;12.60;;;3.37;;
11539;SDS011;5826;54.756;9.192;2024-02-21T06:42:18;12.38;;;3.42;;
11539;SDS011;5826;54.756;9.192;2024-02-21T06:44:44;13.77;;;4.00;;
11539;SDS011;5826;54.756;9.192;2024-02-21T06:47:09;16.10;;;3.75;;
11539;SDS011;5826;54.756;9.192;2024-02-21T06:49:35;14.30;;;3.20;;
11539;SDS011;5826;54.756;9.192;2024-02-21T06:52:02;19.92;;;3.75;;
11539;SDS011;5826;54.756;9.192;2024-02-21T06:54:29;11.98;;;2.88;;
11539;SDS011;5826;54.756;9.192;2024-02-21T06:56:55;12.73;;;2.30;;
11539;SDS011;5826;54.756;9.192;2024-02-21T06:59:20;11.70;;;2.88;;
11539;SDS011;5826;54.756;9.192;2024-02-21T07:01:49;8.18;;;2.42;;
11539;SDS011;5826;54.756;9.192;2024-02-21T07:04:18;12.87;;;3.27;;
11539;SDS011;5826;54.756;9.192;2024-02-21T07:06:44;11.80;;;3.13;;
11539;SDS011;5826;54.756;9.192;2024-02-21T07:09:10;14.68;;;3.20;;
11539;SDS011;5826;54.756;9.192;2024-02-21T07:11:36;14.82;;;3.35;;
11539;SDS011;5826;54.756;9.192;2024-02-21T07:14:01;17.37;;;3.57;;
11539;SDS011;5826;54.756;9.192;2024-02-21T07:16:26;14.50;;;3.63;;
11539;SDS011;5826;54.756;9.192;2024-02-21T07:18:53;11.65;;;2.70;;
11539;SDS011;5826;54.756;9.192;2024-02-21T07:21:20;12.32;;;2.92;;
11539;SDS011;5826;54.756;9.192;2024-02-21T07:23:45;12.23;;;3.20;;
11539;SDS011;5826;54.756;9.192;2024-02-21T07:26:10;11.98;;;2.63;;
11539;SDS011;5826;54.756;9.192;2024-02-21T07:28:36;9.63;;;3.00;;
11539;SDS011;5826;54.756;9.192;2024-02-21T07:31:02;13.15;;;2.60;;
11539;SDS011;5826;54.756;9.192;2024-02-21T07:33:27;17.52;;;3.20;;
11539;SDS011;5826;54.756;9.192;2024-02-21T07:35:53;11.27;;;3.38;;
11539;SDS011;5826;54.756;9.192;2024-02-21T07:38:18;19.80;;;3.75;;
11539;SDS011;5826;54.756;9.192;2024-02-21T07:40:45;16.30;;;3.95;;
11539;SDS011;5826;54.756;9.192;2024-02-21T07:43:10;13.25;;;4.10;;
11539;SDS011;5826;54.756;9.192;2024-02-21T07:45:36;14.60;;;2.92;;
11539;SDS011;5826;54.756;9.192;2024-02-21T07:48:02;14.82;;;3.90;;
11539;SDS011;5826;54.756;9.192;2024-02-21T07:50:27;15.32;;;3.63;;
11539;SDS011;5826;54.756;9.192;2024-02-21T07:52:53;14.70;;;3.65;;
11539;SDS011;5826;54.756;9.192;2024-02-21T07:55:19;20.48;;;4.40;;
11539;SDS011;5826;54.756;9.192;2024-02-21T07:57:44;15.65;;;3.60;;
11539;SDS011;5826;54.756;9.192;2024-02-21T08:00:10;16.97;;;3.30;;
11539;SDS011;5826;54.756;9.192;2024-02-21T08:02:40;13.40;;;3.47;;
11539;SDS011;5826;54.756;9.192;2024-02-21T08:05:07;12.90;;;3.00;;
11539;SDS011;5826;54.756;9.192;2024-02-21T08:07:33;12.88;;;3.38;;
11539;SDS011;5826;54.756;9.192;2024-02-21T08:09:58;18.25;;;3.72;;
11539;SDS011;5826;54.756;9.192;2024-02-21T08:12:24;14.77;;;2.85;;
11539;SDS011;5826;54.756;9.192;2024-02-21T08:14:49;15.65;;;3.50;;
11539;SDS011;5826;54.756;9.192;2024-02-21T08:17:15;11.77;;;2.90;;
11539;SDS011;5826;54.756;9.192;2024-02-21T08:19:40;14.43;;;3.33;;
11539;SDS011;5826;54.756;9.192;2024-02-21T08:22:06;21.63;;;3.85;;
11539;SDS011;5826;54.756;9.192;2024-02-21T08:24:31;17.13;;;3.60;;
11539;SDS011;5826;54.756;9.192;2024-02-21T08:26:57;22.10;;;4.05;;
11539;SDS011;5826;54.756;9.192;2024-02-21T08:29:22;12.35;;;3.63;;
11539;SDS011;5826;54.756;9.192;2024-02-21T08:31:48;17.42;;;3.35;;
11539;SDS011;5826;54.756;9.192;2024-02-21T08:34:13;13.25;;;3.22;;
11539;SDS011;5826;54.756;9.192;2024-02-21T08:36:39;12.90;;;3.15;;
11539;SDS011;5826;54.756;9.192;2024-02-21T08:39:05;12.35;;;3.33;;
11539;SDS011;5826;54.756;9.192;2024-02-21T08:41:31;12.25;;;3.15;;
11539;SDS011;5826;54.756;9.192;2024-02-21T08:43:57;15.70;;;3.42;;
11539;SDS011;5826;54.756;9.192;2024-02-21T08:46:23;14.93;;;3.30;;
11539;SDS011;5826;54.756;9.192;2024-02-21T08:48:49;16.63;;;3.47;;
11539;SDS011;5826;54.756;9.192;2024-02-21T08:51:16;16.23;;;3.30;;
11539;SDS011;5826;54.756;9.192;2024-02-21T08:53:41;16.45;;;3.33;;
11539;SDS011;5826;54.756;9.192;2024-02-21T08:56:07;15.50;;;3.13;;
11539;SDS011;5826;54.756;9.192;2024-02-21T08:58:33;15.35;;;3.42;;
11539;SDS011;5826;54.756;9.192;2024-02-21T09:01:00;19.55;;;3.22;;
11539;SDS011;5826;54.756;9.192;2024-02-21T09:03:25;17.08;;;3.50;;
11539;SDS011;5826;54.756;9.192;2024-02-21T09:05:51;14.25;;;3.53;;
11539;SDS011;5826;54.756;9.192;2024-02-21T09:08:18;10.50;;;3.00;;
11539;SDS011;5826;54.756;9.192;2024-02-21T09:10:46;16.90;;;4.80;;
11539;SDS011;5826;54.756;9.192;2024-02-21T09:13:11;18.80;;;4.38;;
11539;SDS011;5826;54.756;9.192;2024-02-21T09:15:37;17.50;;;3.78;;
11539;SDS011;5826;54.756;9.192;2024-02-21T09:18:02;18.23;;;3.67;;
11539;SDS011;5826;54.756;9.192;2024-02-21T09:20:28;16.98;;;3.70;;
11539;SDS011;5826;54.756;9.192;2024-02-21T09:22:54;16.80;;;3.55;;
11539;SDS011;5826;54.756;9.192;2024-02-21T09:25:19;15.18;;;3.67;;
11539;SDS011;5826;54.756;9.192;2024-02-21T09:27:45;15.45;;;3.58;;
11539;SDS011;5826;54.756;9.192;2024-02-21T09:30:10;13.25;;;3.10;;
11539;SDS011;5826;54.756;9.192;2024-02-21T09:32:37;17.15;;;3.10;;
11539;SDS011;5826;54.756;9.192;2024-02-21T09:35:03;11.45;;;3.38;;
11539;SDS011;5826;54.756;9.192;2024-02-21T09:37:30;10.70;;;3.10;;
11539;SDS011;5826;54.756;9.192;2024-02-21T09:39:56;13.15;;;3.63;;
11539;SDS011;5826;54.756;9.192;2024-02-21T09:42:21;13.18;;;3.15;;
11539;SDS011;5826;54.756;9.192;2024-02-21T09:44:50;15.77;;;3.35;;
11539;SDS011;5826;54.756;9.192;2024-02-21T09:47:28;13.57;;;3.88;;
11539;SDS011;5826;54.756;9.192;2024-02-21T09:50:08;18.92;;;3.33;;
11539;SDS011;5826;54.756;9.192;2024-02-21T09:52:35;19.30;;;3.70;;
11539;SDS011;5826;54.756;9.192;2024-02-21T09:55:02;14.07;;;3.40;;
11539;SDS011;5826;54.756;9.192;2024-02-21T09:57:30;13.00;;;3.58;;
11539;SDS011;5826;54.756;9.192;2024-02-21T09:59:56;15.88;;;3.53;;
11539;SDS011;5826;54.756;9.192;2024-02-21T10:02:24;14.02;;;3.55;;
11539;SDS011;5826;54.756;9.192;2024-02-21T10:04:49;14.80;;;3.50;;
11539;SDS011;5826;54.756;9.192;2024-02-21T10:07:15;12.70;;;3.22;;
11539;SDS011;5826;54.756;9.192;2024-02-21T10:09:40;13.48;;;2.78;;
11539;SDS011;5826;54.756;9.192;2024-02-21T10:12:10;7.82;;;2.58;;
11539;SDS011;5826;54.756;9.192;2024-02-21T10:14:37;9.32;;;2.50;;
11539;SDS011;5826;54.756;9.192;2024-02-21T10:17:02;14.85;;;3.00;;
11539;SDS011;5826;54.756;9.192;2024-02-21T10:19:34;16.15;;;3.40;;
11539;SDS011;5826;54.756;9.192;2024-02-21T10:22:00;10.80;;;2.90;;
11539;SDS011;5826;54.756;9.192;2024-02-21T10:24:33;10.75;;;3.42;;
11539;SDS011;5826;54.756;9.192;2024-02-21T10:27:03;13.43;;;2.85;;
11539;SDS011;5826;54.756;9.192;2024-02-21T10:29:38;13.82;;;3.17;;
11539;SDS011;5826;54.756;9.192;2024-02-21T10:32:08;15.60;;;3.67;;
11539;SDS011;5826;54.756;9.192;2024-02-21T10:34:41;10.02;;;2.88;;
11539;SDS011;5826;54.756;9.192;2024-02-21T10:37:08;11.60;;;3.00;;
11539;SDS011;5826;54.756;9.192;2024-02-21T10:39:36;15.15;;;3.25;;
11539;SDS011;5826;54.756;9.192;2024-02-21T10:42:05;13.10;;;3.15;;
11539;SDS011;5826;54.756;9.192;2024-02-21T10:44:31;12.43;;;3.60;;
11539;SDS011;5826;54.756;9.192;2024-02-21T10:46:58;9.02;;;2.70;;
11539;SDS011;5826;54.756;9.192;2024-02-21T10:49:27;11.35;;;2.95;;
11539;SDS011;5826;54.756;9.192;2024-02-21T10:52:02;13.43;;;3.08;;
11539;SDS011;5826;54.756;9.192;2024-02-21T10:55:12;9.57;;;2.38;;
11539;SDS011;5826;54.756;9.192;2024-02-21T10:57:34;9.93;;;2.80;;
11539;SDS011;5826;54.756;9.192;2024-02-21T11:00:02;9.10;;;2.50;;
11539;SDS011;5826;54.756;9.192;2024-02-21T11:02:28;8.13;;;2.65;;
11539;SDS011;5826;54.756;9.192;2024-02-21T11:04:56;12.70;;;2.95;;
11539;SDS011;5826;54.756;9.192;2024-02-21T11:07:23;9.23;;;2.42;;
11539;SDS011;5826;54.756;9.192;2024-02-21T11:09:52;6.82;;;2.42;;
11539;SDS011;5826;54.756;9.192;2024-02-21T11:12:20;15.07;;;2.97;;
11539;SDS011;5826;54.756;9.192;2024-02-21T11:14:46;11.68;;;2.80;;
11539;SDS011;5826;54.756;9.192;2024-02-21T11:17:15;7.90;;;2.80;;
11539;SDS011;5826;54.756;9.192;2024-02-21T11:19:42;10.52;;;3.08;;
11539;SDS011;5826;54.756;9.192;2024-02-21T11:22:14;7.93;;;2.47;;
11539;SDS011;5826;54.756;9.192;2024-02-21T11:24:41;10.80;;;3.70;;
11539;SDS011;5826;54.756;9.192;2024-02-21T11:27:08;9.68;;;3.25;;
11539;SDS011;5826;54.756;9.192;2024-02-21T11:29:42;12.55;;;3.22;;
11539;SDS011;5826;54.756;9.192;2024-02-21T11:32:20;10.27;;;3.17;;
11539;SDS011;5826;54.756;9.192;2024-02-21T11:34:56;9.60;;;3.30;;
11539;SDS011;5826;54.756;9.192;2024-02-21T11:37:26;10.63;;;2.70;;
11539;SDS011;5826;54.756;9.192;2024-02-21T11:39:53;8.45;;;2.92;;
11539;SDS011;5826;54.756;9.192;2024-02-21T11:42:22;11.98;;;3.72;;
11539;SDS011;5826;54.756;9.192;2024-02-21T11:44:50;8.32;;;2.95;;
11539;SDS011;5826;54.756;9.192;2024-02-21T11:47:15;11.23;;;3.10;;
11539;SDS011;5826;54.756;9.192;2024-02-21T11:49:45;6.65;;;2.72;;
11539;SDS011;5826;54.756;9.192;2024-02-21T11:52:14;10.75;;;2.95;;
11539;SDS011;5826;54.756;9.192;2024-02-21T11:54:43;14.80;;;3.28;;
11539;SDS011;5826;54.756;9.192;2024-02-21T11:57:10;9.43;;;3.03;;
11539;SDS011;5826;54.756;9.192;2024-02-21T11:59:39;11.00;;;2.97;;
11539;SDS011;5826;54.756;9.192;2024-02-21T12:02:05;9.00;;;3.10;;
11539;SDS011;5826;54.756;9.192;2024-02-21T12:04:31;11.55;;;3.58;;
11539;SDS011;5826;54.756;9.192;2024-02-21T12:06:57;11.05;;;3.60;;
11539;SDS011;5826;54.756;9.192;2024-02-21T12:09:23;10.68;;;3.42;;
11539;SDS011;5826;54.756;9.192;2024-02-21T12:11:59;11.93;;;3.58;;
11539;SDS011;5826;54.756;9.192;2024-02-21T12:14:29;15.73;;;3.50;;
11539;SDS011;5826;54.756;9.192;2024-02-21T12:16:56;11.60;;;3.72;;
11539;SDS011;5826;54.756;9.192;2024-02-21T12:19:22;14.98;;;4.28;;
11539;SDS011;5826;54.756;9.192;2024-02-21T12:21:48;12.93;;;4.32;;
11539;SDS011;5826;54.756;9.192;2024-02-21T12:24:20;8.85;;;3.92;;
11539;SDS011;5826;54.756;9.192;2024-02-21T12:26:50;10.88;;;3.90;;
11539;SDS011;5826;54.756;9.192;2024-02-21T12:29:19;10.88;;;3.90;;
11539;SDS011;5826;54.756;9.192;2024-02-21T12:31:45;12.13;;;5.15;;
11539;SDS011;5826;54.756;9.192;2024-02-21T12:34:11;14.80;;;4.80;;
11539;SDS011;5826;54.756;9.192;2024-02-21T12:36:43;11.93;;;4.85;;
11539;SDS011;5826;54.756;9.192;2024-02-21T12:39:10;7.13;;;4.00;;
11539;SDS011;5826;54.756;9.192;2024-02-21T12:41:36;10.18;;;5.30;;
11539;SDS011;5826;54.756;9.192;2024-02-21T12:44:09;17.40;;;5.72;;
11539;SDS011;5826;54.756;9.192;2024-02-21T12:46:38;16.25;;;8.55;;
11539;SDS011;5826;54.756;9.192;2024-02-21T12:49:04;14.85;;;6.65;;
11539;SDS011;5826;54.756;9.192;2024-02-21T12:51:32;14.68;;;5.72;;
11539;SDS011;5826;54.756;9.192;2024-02-21T12:53:57;12.25;;;5.25;;
11539;SDS011;5826;54.756;9.192;2024-02-21T12:56:24;10.32;;;4.65;;
11539;SDS011;5826;54.756;9.192;2024-02-21T12:58:52;7.80;;;4.25;;
11539;SDS011;5826;54.756;9.192;2024-02-21T13:01:17;8.90;;;3.90;;
11539;SDS011;5826;54.756;9.192;2024-02-21T13:03:43;9.20;;;4.35;;
11539;SDS011;5826;54.756;9.192;2024-02-21T13:06:08;7.05;;;3.90;;
11539;SDS011;5826;54.756;9.192;2024-02-21T13:08:37;5.78;;;3.70;;
11539;SDS011;5826;54.756;9.192;2024-02-21T13:11:03;5.40;;;3.35;;
11539;SDS011;5826;54.756;9.192;2024-02-21T13:13:29;5.15;;;3.90;;
11539;SDS011;5826;54.756;9.192;2024-02-21T13:15:55;5.60;;;4.10;;
11539;SDS011;5826;54.756;9.192;2024-02-21T13:18:21;5.45;;;4.15;;
11539;SDS011;5826;54.756;9.192;2024-02-21T13:20:48;5.03;;;4.10;;
11539;SDS011;5826;54.756;9.192;2024-02-21T13:23:13;7.18;;;5.55;;
11539;SDS011;5826;54.756;9.192;2024-02-21T13:25:39;6.70;;;5.28;;
11539;SDS011;5826;54.756;9.192;2024-02-21T13:28:05;6.18;;;5.07;;
11539;SDS011;5826;54.756;9.192;2024-02-21T13:30:30;8.25;;;5.75;;
11539;SDS011;5826;54.756;9.192;2024-02-21T13:32:56;7.53;;;5.13;;
11539;SDS011;5826;54.756;9.192;2024-02-21T13:35:21;8.60;;;5.70;;
11539;SDS011;5826;54.756;9.192;2024-02-21T13:37:47;7.03;;;5.40;;
11539;SDS011;5826;54.756;9.192;2024-02-21T13:40:12;7.97;;;5.05;;
11539;SDS011;5826;54.756;9.192;2024-02-21T13:42:39;9.70;;;5.70;;
11539;SDS011;5826;54.756;9.192;2024-02-21T13:45:05;13.60;;;7.68;;
11539;SDS011;5826;54.756;9.192;2024-02-21T13:47:32;11.35;;;6.47;;
11539;SDS011;5826;54.756;9.192;2024-02-21T13:50:06;12.88;;;7.03;;
11539;SDS011;5826;54.756;9.192;2024-02-21T13:52:35;10.02;;;6.57;;
11539;SDS011;5826;54.756;9.192;2024-02-21T13:55:01;10.82;;;6.05;;
11539;SDS011;5826;54.756;9.192;2024-02-21T13:57:27;9.30;;;5.65;;
11539;SDS011;5826;54.756;9.192;2024-02-21T13:59:53;9.68;;;5.57;;
11539;SDS011;5826;54.756;9.192;2024-02-21T14:02:18;10.35;;;6.03;;
11539;SDS011;5826;54.756;9.192;2024-02-21T14:04:44;9.57;;;6.32;;
11539;SDS011;5826;54.756;9.192;2024-02-21T14:07:09;9.25;;;5.65;;
11539;SDS011;5826;54.756;9.192;2024-02-21T14:09:35;9.00;;;5.55;;
11539;SDS011;5826;54.756;9.192;2024-02-21T14:12:01;11.00;;;5.57;;
11539;SDS011;5826;54.756;9.192;2024-02-21T14:14:27;8.57;;;5.60;;
11539;SDS011;5826;54.756;9.192;2024-02-21T14:16:52;9.65;;;5.45;;
11539;SDS011;5826;54.756;9.192;2024-02-21T14:19:18;9.82;;;6.60;;
11539;SDS011;5826;54.756;9.192;2024-02-21T14:21:44;11.43;;;6.15;;
11539;SDS011;5826;54.756;9.192;2024-02-21T14:24:09;10.07;;;5.60;;
11539;SDS011;5826;54.756;9.192;2024-02-21T14:26:36;15.07;;;7.57;;
11539;SDS011;5826;54.756;9.192;2024-02-21T14:29:02;16.27;;;8.50;;
11539;SDS011;5826;54.756;9.192;2024-02-21T14:31:28;12.40;;;8.35;;
11539;SDS011;5826;54.756;9.192;2024-02-21T14:33:56;11.23;;;6.68;;
11539;SDS011;5826;54.756;9.192;2024-02-21T14:36:22;11.80;;;7.72;;
11539;SDS011;5826;54.756;9.192;2024-02-21T14:38:48;12.52;;;7.72;;
11539;SDS011;5826;54.756;9.192;2024-02-21T14:41:14;9.45;;;6.78;;
11539;SDS011;5826;54.756;9.192;2024-02-21T14:43:39;10.32;;;6.40;;
11539;SDS011;5826;54.756;9.192;2024-02-21T14:46:05;11.27;;;6.95;;